sensor_id;sensor_type;location;lat;lon;timestamp;pressure;altitude;pressure_sealevel;temperature;humidity
60583;BME280;46415;47.536;19.066;2023-06-14T00:01:19;-18592.50;;;13.38;100.00
60583;BME280;46415;47.536;19.066;2023-06-14T00:04:23;-18591.12;;;13.33;100.00
60583;BME280;46415;47.536;19.066;2023-06-14T00:07:41;-18590.03;;;13.29;100.00
60583;BME280;46415;47.536;19.066;2023-06-14T00:10:51;-18590.72;;;13.31;100.00
60583;BME280;46415;47.536;19.066;2023-06-14T00:13:54;-18590.31;;;13.30;100.00
60583;BME280;46415;47.536;19.066;2023-06-14T00:16:57;-18589.91;;;13.28;100.00
60583;BME280;46415;47.536;19.066;2023-06-14T00:20:03;-18590.03;;;13.29;100.00
60583;BME280;46415;47.536;19.066;2023-06-14T00:23:08;-18589.63;;;13.27;100.00
60583;BME280;46415;47.536;19.066;2023-06-14T00:26:11;-18590.31;;;13.30;100.00
60583;BME280;46415;47.536;19.066;2023-06-14T00:29:15;-18591.00;;;13.32;100.00
60583;BME280;46415;47.536;19.066;2023-06-14T00:32:18;-18590.72;;;13.31;100.00
60583;BME280;46415;47.536;19.066;2023-06-14T00:35:22;-18590.44;;;13.30;100.00
60583;BME280;46415;47.536;19.066;2023-06-14T00:38:24;-18588.25;;;13.22;100.00
60583;BME280;46415;47.536;19.066;2023-06-14T00:41:27;-18585.13;;;13.11;100.00
60583;BME280;46415;47.536;19.066;2023-06-14T00:44:30;-18584.28;;;13.07;100.00
60583;BME280;46415;47.536;19.066;2023-06-14T00:47:35;-18583.06;;;13.03;100.00
60583;BME280;46415;47.536;19.066;2023-06-14T00:50:40;-18580.88;;;12.95;100.00
60583;BME280;46415;47.536;19.066;2023-06-14T00:53:44;-18579.94;;;12.91;100.00
60583;BME280;46415;47.536;19.066;2023-06-14T00:56:49;-18579.78;;;12.91;100.00
60583;BME280;46415;47.536;19.066;2023-06-14T00:59:53;-18578.97;;;12.88;100.00
60583;BME280;46415;47.536;19.066;2023-06-14T01:02:57;-18577.47;;;12.82;100.00
60583;BME280;46415;47.536;19.066;2023-06-14T01:06:19;-18578.00;;;12.84;100.00
60583;BME280;46415;47.536;19.066;2023-06-14T01:09:52;-18580.47;;;12.93;100.00
60583;BME280;46415;47.536;19.066;2023-06-14T01:13:01;-18580.59;;;12.94;100.00
60583;BME280;46415;47.536;19.066;2023-06-14T01:16:06;-18579.25;;;12.89;100.00
60583;BME280;46415;47.536;19.066;2023-06-14T01:19:12;-18577.75;;;12.83;100.00
60583;BME280;46415;47.536;19.066;2023-06-14T01:22:16;-18578.16;;;12.85;100.00
60583;BME280;46415;47.536;19.066;2023-06-14T01:25:20;-18576.78;;;12.80;100.00
60583;BME280;46415;47.536;19.066;2023-06-14T01:28:23;-18574.88;;;12.73;100.00
60583;BME280;46415;47.536;19.066;2023-06-14T01:31:28;-18572.69;;;12.64;100.00
60583;BME280;46415;47.536;19.066;2023-06-14T01:34:31;-18571.88;;;12.61;100.00
60583;BME280;46415;47.536;19.066;2023-06-14T01:37:35;-18571.44;;;12.60;100.00
60583;BME280;46415;47.536;19.066;2023-06-14T01:40:39;-18577.59;;;12.83;100.00
60583;BME280;46415;47.536;19.066;2023-06-14T01:43:42;-18574.47;;;12.71;100.00
60583;BME280;46415;47.536;19.066;2023-06-14T01:46:46;-18571.31;;;12.59;100.00
60583;BME280;46415;47.536;19.066;2023-06-14T01:49:49;-18569.41;;;12.52;100.00
60583;BME280;46415;47.536;19.066;2023-06-14T01:52:53;-18567.91;;;12.47;100.00
60583;BME280;46415;47.536;19.066;2023-06-14T01:55:56;-18566.81;;;12.43;100.00
60583;BME280;46415;47.536;19.066;2023-06-14T01:58:59;-18565.31;;;12.37;100.00
60583;BME280;46415;47.536;19.066;2023-06-14T02:02:03;-18564.47;;;12.34;100.00
60583;BME280;46415;47.536;19.066;2023-06-14T02:05:06;-18564.47;;;12.34;100.00
60583;BME280;46415;47.536;19.066;2023-06-14T02:08:10;-18563.78;;;12.32;100.00
60583;BME280;46415;47.536;19.066;2023-06-14T02:11:13;-18564.47;;;12.34;100.00
60583;BME280;46415;47.536;19.066;2023-06-14T02:14:15;-18564.34;;;12.34;100.00
60583;BME280;46415;47.536;19.066;2023-06-14T02:17:19;-18561.75;;;12.24;100.00
60583;BME280;46415;47.536;19.066;2023-06-14T02:20:22;-18561.88;;;12.24;100.00
60583;BME280;46415;47.536;19.066;2023-06-14T02:23:25;-18559.84;;;12.17;100.00
60583;BME280;46415;47.536;19.066;2023-06-14T02:26:28;-18559.56;;;12.16;100.00
60583;BME280;46415;47.536;19.066;2023-06-14T02:29:32;-18558.59;;;12.12;100.00
60583;BME280;46415;47.536;19.066;2023-06-14T02:32:37;-18557.78;;;12.09;100.00
60583;BME280;46415;47.536;19.066;2023-06-14T02:35:41;-18557.66;;;12.09;100.00
60583;BME280;46415;47.536;19.066;2023-06-14T02:38:44;-18558.31;;;12.11;100.00
60583;BME280;46415;47.536;19.066;2023-06-14T02:41:47;-18558.19;;;12.11;100.00
60583;BME280;46415;47.536;19.066;2023-06-14T02:44:50;-18557.66;;;12.09;100.00
60583;BME280;46415;47.536;19.066;2023-06-14T02:47:55;-18557.66;;;12.09;100.00
60583;BME280;46415;47.536;19.066;2023-06-14T02:50:58;-18557.09;;;12.07;100.00
60583;BME280;46415;47.536;19.066;2023-06-14T02:54:01;-18557.66;;;12.09;100.00
60583;BME280;46415;47.536;19.066;2023-06-14T02:57:04;-18556.13;;;12.03;100.00
60583;BME280;46415;47.536;19.066;2023-06-14T03:00:10;-18554.50;;;11.97;100.00
60583;BME280;46415;47.536;19.066;2023-06-14T03:03:17;-18553.81;;;11.95;100.00
60583;BME280;46415;47.536;19.066;2023-06-14T03:06:22;-18555.88;;;12.02;100.00
60583;BME280;46415;47.536;19.066;2023-06-14T03:09:28;-18554.91;;;11.99;100.00
60583;BME280;46415;47.536;19.066;2023-06-14T03:12:31;-18555.88;;;12.02;100.00
60583;BME280;46415;47.536;19.066;2023-06-14T03:15:34;-18557.50;;;12.08;100.00
60583;BME280;46415;47.536;19.066;2023-06-14T03:18:38;-18560.09;;;12.18;100.00
60583;BME280;46415;47.536;19.066;2023-06-14T03:21:41;-18562.28;;;12.26;100.00
60583;BME280;46415;47.536;19.066;2023-06-14T03:24:48;-18563.53;;;12.31;100.00
60583;BME280;46415;47.536;19.066;2023-06-14T03:27:51;-18567.34;;;12.45;100.00
60583;BME280;46415;47.536;19.066;2023-06-14T03:30:54;-18567.22;;;12.44;100.00
60583;BME280;46415;47.536;19.066;2023-06-14T03:33:58;-18566.53;;;12.42;100.00
60583;BME280;46415;47.536;19.066;2023-06-14T03:37:02;-18567.63;;;12.46;100.00
60583;BME280;46415;47.536;19.066;2023-06-14T03:40:05;-18569.41;;;12.52;100.00
60583;BME280;46415;47.536;19.066;2023-06-14T03:43:11;-18573.50;;;12.67;100.00
60583;BME280;46415;47.536;19.066;2023-06-14T03:46:13;-18576.22;;;12.78;100.00
60583;BME280;46415;47.536;19.066;2023-06-14T03:49:17;-18575.81;;;12.76;100.00
60583;BME280;46415;47.536;19.066;2023-06-14T03:52:20;-18578.16;;;12.85;100.00
60583;BME280;46415;47.536;19.066;2023-06-14T03:55:25;-18581.03;;;12.95;100.00
60583;BME280;46415;47.536;19.066;2023-06-14T03:58:30;-18584.44;;;13.08;100.00
60583;BME280;46415;47.536;19.066;2023-06-14T04:01:35;-18586.75;;;13.17;100.00
60583;BME280;46415;47.536;19.066;2023-06-14T04:04:38;-18590.03;;;13.29;100.00
60583;BME280;46415;47.536;19.066;2023-06-14T04:07:41;-18593.19;;;13.40;100.00
60583;BME280;46415;47.536;19.066;2023-06-14T04:10:47;-18595.62;;;13.49;100.00
60583;BME280;46415;47.536;19.066;2023-06-14T04:13:50;-18598.50;;;13.60;100.00
60583;BME280;46415;47.536;19.066;2023-06-14T04:16:53;-18602.75;;;13.76;100.00
60583;BME280;46415;47.536;19.066;2023-06-14T04:19:57;-18604.66;;;13.83;100.00
60583;BME280;46415;47.536;19.066;2023-06-14T04:23:14;-18608.19;;;13.96;100.00
60583;BME280;46415;47.536;19.066;2023-06-14T04:26:17;-18611.47;;;14.08;100.00
60583;BME280;46415;47.536;19.066;2023-06-14T04:29:22;-18614.22;;;14.18;100.00
60583;BME280;46415;47.536;19.066;2023-06-14T04:32:27;-18619.13;;;14.37;100.00
60583;BME280;46415;47.536;19.066;2023-06-14T04:35:32;-18619.25;;;14.37;100.00
60583;BME280;46415;47.536;19.066;2023-06-14T04:38:35;-18622.69;;;14.50;100.00
60583;BME280;46415;47.536;19.066;2023-06-14T04:41:38;-18626.91;;;14.65;100.00
60583;BME280;46415;47.536;19.066;2023-06-14T04:44:43;-18631.94;;;14.84;100.00
60583;BME280;46415;47.536;19.066;2023-06-14T04:47:46;-18633.88;;;14.91;100.00
60583;BME280;46415;47.536;19.066;2023-06-14T04:50:49;-18637.53;;;15.05;100.00
60583;BME280;46415;47.536;19.066;2023-06-14T04:53:56;-18639.31;;;15.11;100.00
60583;BME280;46415;47.536;19.066;2023-06-14T04:57:00;-18645.31;;;15.34;100.00
60583;BME280;46415;47.536;19.066;2023-06-14T05:00:06;-18649.41;;;15.49;100.00
60583;BME280;46415;47.536;19.066;2023-06-14T05:03:09;-18652.69;;;15.61;100.00
60583;BME280;46415;47.536;19.066;2023-06-14T05:06:16;-18656.09;;;15.74;100.00
60583;BME280;46415;47.536;19.066;2023-06-14T05:09:20;-18656.38;;;15.75;100.00
60583;BME280;46415;47.536;19.066;2023-06-14T05:12:25;-18662.09;;;15.96;100.00
60583;BME280;46415;47.536;19.066;2023-06-14T05:15:28;-18667.81;;;16.17;98.54
60583;BME280;46415;47.536;19.066;2023-06-14T05:18:31;-18672.03;;;16.33;98.05
60583;BME280;46415;47.536;19.066;2023-06-14T05:21:36;-18677.06;;;16.52;97.45
60583;BME280;46415;47.536;19.066;2023-06-14T05:24:45;-18682.66;;;16.72;94.97
60583;BME280;46415;47.536;19.066;2023-06-14T05:27:50;-18684.03;;;16.78;93.65
60583;BME280;46415;47.536;19.066;2023-06-14T05:30:53;-18685.66;;;16.84;92.34
60583;BME280;46415;47.536;19.066;2023-06-14T05:33:55;-18682.00;;;16.70;92.89
60583;BME280;46415;47.536;19.066;2023-06-14T05:36:58;-18683.34;;;16.75;92.15
60583;BME280;46415;47.536;19.066;2023-06-14T05:40:04;-18677.06;;;16.52;93.40
60583;BME280;46415;47.536;19.066;2023-06-14T05:43:11;-18676.53;;;16.50;93.95
60583;BME280;46415;47.536;19.066;2023-06-14T05:46:14;-18678.31;;;16.56;95.09
60583;BME280;46415;47.536;19.066;2023-06-14T05:49:17;-18683.09;;;16.74;93.31
60583;BME280;46415;47.536;19.066;2023-06-14T05:52:20;-18684.72;;;16.80;92.64
60583;BME280;46415;47.536;19.066;2023-06-14T05:55:23;-18692.47;;;17.09;89.80
60583;BME280;46415;47.536;19.066;2023-06-14T05:58:26;-18698.59;;;17.32;89.78
60583;BME280;46415;47.536;19.066;2023-06-14T06:01:29;-18704.31;;;17.53;88.23
60583;BME280;46415;47.536;19.066;2023-06-14T06:04:33;-18709.63;;;17.73;86.97
60583;BME280;46415;47.536;19.066;2023-06-14T06:07:36;-18712.34;;;17.83;85.38
60583;BME280;46415;47.536;19.066;2023-06-14T06:10:40;-18715.88;;;17.96;84.18
60583;BME280;46415;47.536;19.066;2023-06-14T06:13:42;-18723.78;;;18.25;83.59
60583;BME280;46415;47.536;19.066;2023-06-14T06:16:45;-18733.72;;;18.62;81.99
60583;BME280;46415;47.536;19.066;2023-06-14T06:19:49;-18740.09;;;18.86;81.10
60583;BME280;46415;47.536;19.066;2023-06-14T06:22:51;-18737.91;;;18.78;80.32
60583;BME280;46415;47.536;19.066;2023-06-14T06:25:54;-18742.13;;;18.94;79.42
60583;BME280;46415;47.536;19.066;2023-06-14T06:28:58;-18739.16;;;18.83;79.78
60583;BME280;46415;47.536;19.066;2023-06-14T06:32:01;-18745.25;;;19.05;78.82
60583;BME280;46415;47.536;19.066;2023-06-14T06:35:04;-18746.63;;;19.10;75.66
60583;BME280;46415;47.536;19.066;2023-06-14T06:38:09;-18741.19;;;18.90;79.73
60583;BME280;46415;47.536;19.066;2023-06-14T06:41:13;-18748.78;;;19.18;78.45
60583;BME280;46415;47.536;19.066;2023-06-14T06:44:15;-18745.94;;;19.08;77.49
60583;BME280;46415;47.536;19.066;2023-06-14T06:47:23;-18740.91;;;18.89;78.48
60583;BME280;46415;47.536;19.066;2023-06-14T06:50:27;-18750.16;;;19.24;77.43
60583;BME280;46415;47.536;19.066;2023-06-14T06:53:31;-18760.47;;;19.62;77.19
60583;BME280;46415;47.536;19.066;2023-06-14T06:56:44;-18766.44;;;19.84;75.83
60583;BME280;46415;47.536;19.066;2023-06-14T06:59:47;-18764.81;;;19.78;74.45
60583;BME280;46415;47.536;19.066;2023-06-14T07:02:49;-18751.66;;;19.29;75.64
60583;BME280;46415;47.536;19.066;2023-06-14T07:05:53;-18750.69;;;19.26;76.16
60583;BME280;46415;47.536;19.066;2023-06-14T07:08:56;-18754.22;;;19.39;76.66
60583;BME280;46415;47.536;19.066;2023-06-14T07:12:04;-18757.09;;;19.49;74.30
60583;BME280;46415;47.536;19.066;2023-06-14T07:15:07;-18758.31;;;19.54;73.72
60583;BME280;46415;47.536;19.066;2023-06-14T07:18:11;-18758.72;;;19.55;74.37
60583;BME280;46415;47.536;19.066;2023-06-14T07:21:17;-18758.44;;;19.54;72.91
60583;BME280;46415;47.536;19.066;2023-06-14T07:24:20;-18763.19;;;19.72;72.71
60583;BME280;46415;47.536;19.066;2023-06-14T07:27:27;-18769.31;;;19.95;70.56
60583;BME280;46415;47.536;19.066;2023-06-14T07:30:30;-18765.09;;;19.79;70.98
60583;BME280;46415;47.536;19.066;2023-06-14T07:33:33;-18759.25;;;19.58;72.91
60583;BME280;46415;47.536;19.066;2023-06-14T07:36:37;-18758.31;;;19.54;71.96
60583;BME280;46415;47.536;19.066;2023-06-14T07:39:40;-18767.13;;;19.87;69.14
60583;BME280;46415;47.536;19.066;2023-06-14T07:42:43;-18784.91;;;20.53;68.15
60583;BME280;46415;47.536;19.066;2023-06-14T07:45:45;-18797.41;;;21.00;64.75
60583;BME280;46415;47.536;19.066;2023-06-14T07:49:08;-18798.63;;;21.04;63.22
60583;BME280;46415;47.536;19.066;2023-06-14T07:52:11;-18792.38;;;20.81;60.50
60583;BME280;46415;47.536;19.066;2023-06-14T07:55:14;-18785.19;;;20.54;61.11
60583;BME280;46415;47.536;19.066;2023-06-14T07:58:18;-18786.41;;;20.59;60.03
60583;BME280;46415;47.536;19.066;2023-06-14T08:01:21;-18792.78;;;20.83;60.54
60583;BME280;46415;47.536;19.066;2023-06-14T08:04:24;-18795.63;;;20.93;59.00
60583;BME280;46415;47.536;19.066;2023-06-14T08:07:27;-18802.69;;;21.20;59.52
60583;BME280;46415;47.536;19.066;2023-06-14T08:10:30;-18818.81;;;21.80;57.51
60583;BME280;46415;47.536;19.066;2023-06-14T08:13:33;-18831.84;;;22.28;55.66
60583;BME280;46415;47.536;19.066;2023-06-14T08:16:36;-18842.66;;;22.69;56.62
60583;BME280;46415;47.536;19.066;2023-06-14T08:19:38;-18835.34;;;22.42;56.65
60583;BME280;46415;47.536;19.066;2023-06-14T08:22:42;-18832.91;;;22.32;55.87
60583;BME280;46415;47.536;19.066;2023-06-14T08:25:45;-18829.66;;;22.20;56.67
60583;BME280;46415;47.536;19.066;2023-06-14T08:28:48;-18816.13;;;21.70;57.65
60583;BME280;46415;47.536;19.066;2023-06-14T08:31:51;-18823.44;;;21.97;56.47
60583;BME280;46415;47.536;19.066;2023-06-14T08:34:53;-18830.75;;;22.24;56.86
60583;BME280;46415;47.536;19.066;2023-06-14T08:38:16;-18849.72;;;22.95;55.55
60583;BME280;46415;47.536;19.066;2023-06-14T08:41:22;-18852.56;;;23.06;53.67
60583;BME280;46415;47.536;19.066;2023-06-14T08:44:31;-18842.66;;;22.69;55.25
60583;BME280;46415;47.536;19.066;2023-06-14T08:47:34;-18843.91;;;22.73;56.51
60583;BME280;46415;47.536;19.066;2023-06-14T08:50:44;-18838.06;;;22.52;52.94
60583;BME280;46415;47.536;19.066;2023-06-14T08:53:52;-18829.41;;;22.19;53.61
60583;BME280;46415;47.536;19.066;2023-06-14T08:56:56;-18822.47;;;21.93;54.22
60583;BME280;46415;47.536;19.066;2023-06-14T09:00:03;-18821.94;;;21.91;54.57
60583;BME280;46415;47.536;19.066;2023-06-14T09:03:16;-18821.81;;;21.91;56.01
60583;BME280;46415;47.536;19.066;2023-06-14T09:06:20;-18819.78;;;21.83;55.97
60583;BME280;46415;47.536;19.066;2023-06-14T09:09:25;-18826.56;;;22.09;55.04
60583;BME280;46415;47.536;19.066;2023-06-14T09:12:31;-18818.56;;;21.79;54.24
60583;BME280;46415;47.536;19.066;2023-06-14T09:15:34;-18815.72;;;21.68;54.35
60583;BME280;46415;47.536;19.066;2023-06-14T09:18:39;-18821.41;;;21.89;54.64
60583;BME280;46415;47.536;19.066;2023-06-14T09:21:47;-18825.75;;;22.06;54.69
60583;BME280;46415;47.536;19.066;2023-06-14T09:24:50;-18831.44;;;22.27;53.74
60583;BME280;46415;47.536;19.066;2023-06-14T09:27:53;-18836.16;;;22.45;53.29
60583;BME280;46415;47.536;19.066;2023-06-14T09:30:56;-18836.31;;;22.45;54.95
60583;BME280;46415;47.536;19.066;2023-06-14T09:34:02;-18835.34;;;22.42;54.74
60583;BME280;46415;47.536;19.066;2023-06-14T09:37:05;-18827.22;;;22.11;55.66
60583;BME280;46415;47.536;19.066;2023-06-14T09:40:08;-18822.91;;;21.95;55.93
60583;BME280;46415;47.536;19.066;2023-06-14T09:43:12;-18818.00;;;21.77;54.57
60583;BME280;46415;47.536;19.066;2023-06-14T09:46:15;-18818.81;;;21.80;54.92
60583;BME280;46415;47.536;19.066;2023-06-14T09:49:18;-18829.53;;;22.20;53.48
60583;BME280;46415;47.536;19.066;2023-06-14T09:52:22;-18840.38;;;22.60;52.85
60583;BME280;46415;47.536;19.066;2023-06-14T09:55:26;-18847.56;;;22.87;52.23
60583;BME280;46415;47.536;19.066;2023-06-14T09:58:33;-18853.50;;;23.09;51.86
60583;BME280;46415;47.536;19.066;2023-06-14T10:01:43;-18861.34;;;23.39;51.30
60583;BME280;46415;47.536;19.066;2023-06-14T10:04:58;-18865.16;;;23.53;48.41
60583;BME280;46415;47.536;19.066;2023-06-14T10:08:10;-18871.38;;;23.76;46.64
60583;BME280;46415;47.536;19.066;2023-06-14T10:11:17;-18868.94;;;23.67;45.61
60583;BME280;46415;47.536;19.066;2023-06-14T10:14:20;-18871.91;;;23.78;42.32
60583;BME280;46415;47.536;19.066;2023-06-14T10:17:30;-18876.50;;;23.95;41.41
60583;BME280;46415;47.536;19.066;2023-06-14T10:20:44;-18902.19;;;24.92;42.96
60583;BME280;46415;47.536;19.066;2023-06-14T10:23:51;-18920.03;;;25.58;39.58
60583;BME280;46415;47.536;19.066;2023-06-14T10:26:57;-18932.44;;;26.05;37.97
60583;BME280;46415;47.536;19.066;2023-06-14T10:30:03;-18924.88;;;25.77;37.73
60583;BME280;46415;47.536;19.066;2023-06-14T10:33:07;-18903.13;;;24.95;37.71
60583;BME280;46415;47.536;19.066;2023-06-14T10:39:31;-18912.59;;;25.31;39.54
60583;BME280;46415;47.536;19.066;2023-06-14T10:42:34;-18921.63;;;25.65;39.58
60583;BME280;46415;47.536;19.066;2023-06-14T10:45:36;-18933.78;;;26.10;37.65
60583;BME280;46415;47.536;19.066;2023-06-14T10:48:43;-18931.75;;;26.02;37.92
60583;BME280;46415;47.536;19.066;2023-06-14T10:51:50;-18936.75;;;26.21;36.01
60583;BME280;46415;47.536;19.066;2023-06-14T10:58:04;-18907.31;;;25.11;37.26
60583;BME280;46415;47.536;19.066;2023-06-14T11:01:07;-18899.75;;;24.83;39.38
60583;BME280;46415;47.536;19.066;2023-06-14T11:04:11;-18899.75;;;24.83;40.58
60583;BME280;46415;47.536;19.066;2023-06-14T11:11:06;-18904.34;;;25.00;39.32
60583;BME280;46415;47.536;19.066;2023-06-14T11:14:10;-18894.09;;;24.61;39.79
60583;BME280;46415;47.536;19.066;2023-06-14T11:17:12;-18891.78;;;24.53;40.36
60583;BME280;46415;47.536;19.066;2023-06-14T11:20:17;-18895.84;;;24.68;40.49
60583;BME280;46415;47.536;19.066;2023-06-14T11:23:24;-18892.31;;;24.55;39.50
60583;BME280;46415;47.536;19.066;2023-06-14T11:26:31;-18901.78;;;24.90;39.74
60583;BME280;46415;47.536;19.066;2023-06-14T11:29:36;-18912.47;;;25.30;39.07
60583;BME280;46415;47.536;19.066;2023-06-14T11:32:39;-18919.22;;;25.55;38.64
60583;BME280;46415;47.536;19.066;2023-06-14T11:35:43;-18925.00;;;25.77;39.88
60583;BME280;46415;47.536;19.066;2023-06-14T11:38:46;-18927.56;;;25.87;39.38
60583;BME280;46415;47.536;19.066;2023-06-14T11:41:49;-18917.31;;;25.48;40.05
60583;BME280;46415;47.536;19.066;2023-06-14T11:44:53;-18923.53;;;25.72;40.83
60583;BME280;46415;47.536;19.066;2023-06-14T11:48:09;-18925.56;;;25.79;39.68
60583;BME280;46415;47.536;19.066;2023-06-14T11:51:12;-18919.75;;;25.57;41.25
60583;BME280;46415;47.536;19.066;2023-06-14T11:54:15;-18925.69;;;25.80;41.38
60583;BME280;46415;47.536;19.066;2023-06-14T11:57:19;-18939.72;;;26.32;40.29
60583;BME280;46415;47.536;19.066;2023-06-14T12:00:25;-18938.66;;;26.28;40.03
60583;BME280;46415;47.536;19.066;2023-06-14T12:03:30;-18945.94;;;26.56;40.54
60583;BME280;46415;47.536;19.066;2023-06-14T12:06:33;-18935.28;;;26.16;39.78
60583;BME280;46415;47.536;19.066;2023-06-14T12:10:03;-18911.50;;;25.27;41.26
60583;BME280;46415;47.536;19.066;2023-06-14T12:13:10;-18911.66;;;25.27;41.97
60583;BME280;46415;47.536;19.066;2023-06-14T12:16:13;-18897.19;;;24.73;41.99
60583;BME280;46415;47.536;19.066;2023-06-14T12:19:17;-18888.69;;;24.41;42.98
60583;BME280;46415;47.536;19.066;2023-06-14T12:22:20;-18884.34;;;24.25;43.40
60583;BME280;46415;47.536;19.066;2023-06-14T12:25:30;-18889.50;;;24.44;43.18
60583;BME280;46415;47.536;19.066;2023-06-14T12:28:36;-18891.09;;;24.50;42.69
60583;BME280;46415;47.536;19.066;2023-06-14T12:31:38;-18895.44;;;24.66;43.01
60583;BME280;46415;47.536;19.066;2023-06-14T12:34:41;-18900.56;;;24.86;41.94
60583;BME280;46415;47.536;19.066;2023-06-14T12:37:45;-18912.59;;;25.31;40.83
60583;BME280;46415;47.536;19.066;2023-06-14T12:40:48;-18908.94;;;25.17;39.15
60583;BME280;46415;47.536;19.066;2023-06-14T12:43:51;-18910.97;;;25.25;39.45
60583;BME280;46415;47.536;19.066;2023-06-14T12:46:54;-18914.88;;;25.39;39.07
60583;BME280;46415;47.536;19.066;2023-06-14T12:49:57;-18917.03;;;25.47;38.59
60583;BME280;46415;47.536;19.066;2023-06-14T12:53:00;-18928.13;;;25.89;37.33
60583;BME280;46415;47.536;19.066;2023-06-14T12:56:03;-18929.75;;;25.95;36.81
60583;BME280;46415;47.536;19.066;2023-06-14T12:59:06;-18940.25;;;26.34;36.33
60583;BME280;46415;47.536;19.066;2023-06-14T13:02:19;-18942.69;;;26.44;36.25
60583;BME280;46415;47.536;19.066;2023-06-14T13:05:27;-18949.84;;;26.70;35.76
60583;BME280;46415;47.536;19.066;2023-06-14T13:08:30;-18954.41;;;26.88;35.38
60583;BME280;46415;47.536;19.066;2023-06-14T13:11:33;-18954.84;;;26.89;35.11
60583;BME280;46415;47.536;19.066;2023-06-14T13:14:39;-18941.75;;;26.40;35.32
60583;BME280;46415;47.536;19.066;2023-06-14T13:17:43;-18933.13;;;26.08;35.61
60583;BME280;46415;47.536;19.066;2023-06-14T13:20:51;-18926.91;;;25.84;35.81
60583;BME280;46415;47.536;19.066;2023-06-14T13:23:54;-18917.31;;;25.48;37.07
60583;BME280;46415;47.536;19.066;2023-06-14T13:26:56;-18913.13;;;25.33;37.56
60583;BME280;46415;47.536;19.066;2023-06-14T13:30:00;-18916.09;;;25.44;39.68
60583;BME280;46415;47.536;19.066;2023-06-14T13:33:03;-18915.03;;;25.40;36.28
60583;BME280;46415;47.536;19.066;2023-06-14T13:36:06;-18908.69;;;25.16;38.14
60583;BME280;46415;47.536;19.066;2023-06-14T13:39:09;-18911.09;;;25.25;37.36
60583;BME280;46415;47.536;19.066;2023-06-14T13:42:13;-18908.41;;;25.15;38.73
60583;BME280;46415;47.536;19.066;2023-06-14T13:45:16;-18906.38;;;25.07;36.63
60583;BME280;46415;47.536;19.066;2023-06-14T13:48:19;-18915.03;;;25.40;37.03
60583;BME280;46415;47.536;19.066;2023-06-14T13:51:22;-18913.53;;;25.34;36.61
60583;BME280;46415;47.536;19.066;2023-06-14T13:54:26;-18922.84;;;25.69;34.91
60583;BME280;46415;47.536;19.066;2023-06-14T13:57:29;-18932.16;;;26.04;35.44
60583;BME280;46415;47.536;19.066;2023-06-14T14:00:32;-18926.09;;;25.81;35.54
60583;BME280;46415;47.536;19.066;2023-06-14T14:03:35;-18932.44;;;26.05;33.96
60583;BME280;46415;47.536;19.066;2023-06-14T14:06:38;-18925.00;;;25.77;34.62
60583;BME280;46415;47.536;19.066;2023-06-14T14:09:41;-18925.28;;;25.78;34.93
60583;BME280;46415;47.536;19.066;2023-06-14T14:12:45;-18920.44;;;25.60;34.16
60583;BME280;46415;47.536;19.066;2023-06-14T14:15:51;-18920.28;;;25.59;34.70
60583;BME280;46415;47.536;19.066;2023-06-14T14:18:54;-18921.91;;;25.66;34.46
60583;BME280;46415;47.536;19.066;2023-06-14T14:21:58;-18925.41;;;25.79;35.42
60583;BME280;46415;47.536;19.066;2023-06-14T14:25:01;-18934.06;;;26.11;34.72
60583;BME280;46415;47.536;19.066;2023-06-14T14:28:03;-18936.47;;;26.20;32.73
60583;BME280;46415;47.536;19.066;2023-06-14T14:31:06;-18937.97;;;26.26;32.98
60583;BME280;46415;47.536;19.066;2023-06-14T14:34:10;-18939.59;;;26.32;32.72
60583;BME280;46415;47.536;19.066;2023-06-14T14:37:12;-18948.91;;;26.67;32.08
60583;BME280;46415;47.536;19.066;2023-06-14T14:40:17;-18957.66;;;27.00;31.61
60583;BME280;46415;47.536;19.066;2023-06-14T14:43:20;-18976.66;;;27.71;30.64
60583;BME280;46415;47.536;19.066;2023-06-14T14:46:23;-18992.00;;;28.29;30.05
60583;BME280;46415;47.536;19.066;2023-06-14T14:49:26;-19013.00;;;29.08;27.61
60583;BME280;46415;47.536;19.066;2023-06-14T14:52:29;-19028.06;;;29.65;27.17
60583;BME280;46415;47.536;19.066;2023-06-14T14:55:32;-19040.41;;;30.11;27.65
60583;BME280;46415;47.536;19.066;2023-06-14T14:58:37;-19039.63;;;30.08;27.10
60583;BME280;46415;47.536;19.066;2023-06-14T15:01:40;-19025.25;;;29.54;26.77
60583;BME280;46415;47.536;19.066;2023-06-14T15:04:44;-18977.47;;;27.74;28.39
60583;BME280;46415;47.536;19.066;2023-06-14T15:07:47;-18949.97;;;26.71;30.78
60583;BME280;46415;47.536;19.066;2023-06-14T15:10:50;-18935.66;;;26.17;32.49
60583;BME280;46415;47.536;19.066;2023-06-14T15:13:53;-18923.25;;;25.71;31.99
60583;BME280;46415;47.536;19.066;2023-06-14T15:16:56;-18912.59;;;25.31;32.39
60583;BME280;46415;47.536;19.066;2023-06-14T15:20:00;-18907.31;;;25.11;34.36
60583;BME280;46415;47.536;19.066;2023-06-14T15:23:03;-18913.53;;;25.34;35.49
60583;BME280;46415;47.536;19.066;2023-06-14T15:26:07;-18907.19;;;25.10;36.86
60583;BME280;46415;47.536;19.066;2023-06-14T15:29:10;-18906.78;;;25.09;36.61
60583;BME280;46415;47.536;19.066;2023-06-14T15:32:13;-18923.81;;;25.73;35.42
60583;BME280;46415;47.536;19.066;2023-06-14T15:35:17;-18920.97;;;25.62;36.01
60583;BME280;46415;47.536;19.066;2023-06-14T15:38:22;-18908.41;;;25.15;36.77
60583;BME280;46415;47.536;19.066;2023-06-14T15:41:25;-18917.31;;;25.48;35.82
60583;BME280;46415;47.536;19.066;2023-06-14T15:44:28;-19025.38;;;29.54;30.49
60583;BME280;46415;47.536;19.066;2023-06-14T15:47:31;-19104.94;;;32.55;27.11
60583;BME280;46415;47.536;19.066;2023-06-14T15:50:33;-19075.59;;;31.44;28.16
60583;BME280;46415;47.536;19.066;2023-06-14T15:53:36;-19030.75;;;29.75;29.93
60583;BME280;46415;47.536;19.066;2023-06-14T15:56:39;-18957.00;;;26.97;33.32